createdAt,value
2022-07-25T00:00:04.090Z,100811.00
2022-07-25T00:02:31.814Z,100804.53
2022-07-25T00:05:00.023Z,100803.72
2022-07-25T00:07:31.119Z,100795.88
2022-07-25T00:09:58.811Z,100792.66
2022-07-25T00:12:27.940Z,100792.66
2022-07-25T00:14:55.811Z,100795.88
2022-07-25T00:17:23.530Z,100787.34
2022-07-25T00:19:51.292Z,100776.22
2022-07-25T00:22:19.045Z,100782.34
2022-07-25T00:24:46.974Z,100771.81
2022-07-25T00:27:14.811Z,100774.88
2022-07-25T00:29:43.890Z,100766.34
2022-07-25T00:32:11.700Z,100769.50
2022-07-25T00:34:39.437Z,100773.16
2022-07-25T00:37:07.173Z,100772.16
2022-07-25T00:39:36.391Z,100771.19
2022-07-25T00:42:04.512Z,100765.13
2022-07-25T00:44:33.493Z,100758.06
2022-07-25T00:47:02.706Z,100751.78
2022-07-25T00:49:30.478Z,100762.97
2022-07-25T00:51:59.101Z,100765.97
2022-07-25T00:54:26.958Z,100764.63
2022-07-25T00:56:54.717Z,100762.09
2022-07-25T00:59:22.463Z,100770.28
2022-07-25T01:01:50.262Z,100764.63
2022-07-25T01:04:19.455Z,100755.47
2022-07-25T01:06:47.250Z,100758.38
2022-07-25T01:09:15.402Z,100762.09
2022-07-25T01:11:43.503Z,100759.13
2022-07-25T01:14:11.373Z,100754.50
2022-07-25T01:16:40.910Z,100758.84
2022-07-25T01:19:08.708Z,100755.41
2022-07-25T01:21:40.579Z,100745.75
2022-07-25T01:24:10.394Z,100748.28
2022-07-25T01:26:38.287Z,100743.28
2022-07-25T01:29:06.510Z,100747.47
2022-07-25T01:31:34.546Z,100745.53
2022-07-25T01:34:04.204Z,100746.03
2022-07-25T01:36:32.318Z,100743.75
2022-07-25T01:39:03.796Z,100734.56
2022-07-25T01:41:31.638Z,100745.03
2022-07-25T01:43:59.385Z,100734.06
2022-07-25T01:46:27.142Z,100734.06
2022-07-25T01:48:55.162Z,100727.94
2022-07-25T01:51:22.963Z,100723.25
2022-07-25T01:53:54.257Z,100727.13
2022-07-25T01:56:23.339Z,100724.25
2022-07-25T01:58:51.632Z,100718.59
2022-07-25T02:01:21.845Z,100718.44
2022-07-25T02:03:50.121Z,100717.59
2022-07-25T02:06:19.071Z,100721.31
2022-07-25T02:08:46.810Z,100707.16
2022-07-25T02:11:14.577Z,100709.53
2022-07-25T02:13:44.505Z,100704.72
2022-07-25T02:16:12.464Z,100700.84
2022-07-25T02:18:40.493Z,100694.22
2022-07-25T02:21:14.298Z,100695.59
2022-07-25T02:23:42.913Z,100700.78
2022-07-25T02:26:10.714Z,100687.41
2022-07-25T02:28:38.477Z,100691.78
2022-07-25T02:31:07.902Z,100689.22
2022-07-25T02:33:35.893Z,100674.56
2022-07-25T02:36:03.614Z,100677.94
2022-07-25T02:38:31.499Z,100679.75
2022-07-25T02:40:59.218Z,100677.16
2022-07-25T02:43:26.966Z,100675.06
2022-07-25T02:45:54.813Z,100680.38
2022-07-25T02:48:24.039Z,100672.81
2022-07-25T02:50:51.843Z,100674.09
2022-07-25T02:53:39.960Z,100670.69
2022-07-25T02:56:07.618Z,100668.28
2022-07-25T02:58:35.544Z,100663.78
2022-07-25T03:01:07.160Z,100666.03
2022-07-25T03:03:36.475Z,100662.94
2022-07-25T03:06:04.304Z,100663.13
2022-07-25T03:08:31.990Z,100658.09
2022-07-25T03:10:59.750Z,100662.16
2022-07-25T03:13:27.467Z,100655.72
2022-07-25T03:15:55.211Z,100661.94
2022-07-25T03:18:22.913Z,100659.41
2022-07-25T03:20:51.992Z,100665.47
2022-07-25T03:23:19.773Z,100662.81
2022-07-25T03:25:47.557Z,100649.25
2022-07-25T03:28:15.257Z,100650.38
2022-07-25T03:30:43.126Z,100646.06
2022-07-25T03:33:11.066Z,100640.22
2022-07-25T03:35:38.909Z,100642.63
2022-07-25T03:38:07.968Z,100630.50
2022-07-25T03:40:36.424Z,100637.47
2022-07-25T03:43:04.195Z,100628.09
2022-07-25T03:45:32.048Z,100632.28
2022-07-25T03:47:59.825Z,100631.72
2022-07-25T03:50:27.658Z,100626.09
2022-07-25T03:52:55.408Z,100619.31
2022-07-25T03:55:24.649Z,100619.56
2022-07-25T03:57:52.479Z,100611.81
2022-07-25T04:00:20.214Z,100609.41
2022-07-25T04:02:47.991Z,100606.16
2022-07-25T04:05:15.753Z,100597.81
2022-07-25T04:07:43.557Z,100592.22
2022-07-25T04:10:12.533Z,100585.41
2022-07-25T04:12:41.665Z,100581.41
2022-07-25T04:15:10.499Z,100574.34
2022-07-25T04:17:39.666Z,100573.47
2022-07-25T04:20:08.448Z,100576.09
2022-07-25T04:22:36.943Z,100561.38
2022-07-25T04:25:06.096Z,100561.88
2022-07-25T04:27:33.854Z,100561.56
2022-07-25T04:30:04.055Z,100555.97
2022-07-25T04:32:31.791Z,100548.03
2022-07-25T04:34:59.500Z,100547.28
2022-07-25T04:37:27.337Z,100549.50
2022-07-25T04:39:55.236Z,100543.88
2022-07-25T04:42:22.960Z,100541.50
2022-07-25T04:44:50.625Z,100539.75
2022-07-25T04:47:19.833Z,100535.22
2022-07-25T04:49:47.532Z,100530.75
2022-07-25T04:52:15.229Z,100524.50
2022-07-25T04:54:43.109Z,100521.28
2022-07-25T04:57:10.834Z,100519.84
2022-07-25T04:59:38.533Z,100507.94
2022-07-25T05:02:06.384Z,100515.16
2022-07-25T05:04:35.452Z,100509.84
2022-07-25T05:07:11.145Z,100514.19
2022-07-25T05:09:38.834Z,100507.28
2022-07-25T05:12:06.996Z,100506.47
2022-07-25T05:14:34.699Z,100512.94
2022-07-25T05:17:07.259Z,100506.97
2022-07-25T05:19:36.301Z,100502.91
2022-07-25T05:22:04.680Z,100491.16
2022-07-25T05:24:34.141Z,100490.19
2022-07-25T05:27:01.972Z,100492.63
2022-07-25T05:29:29.753Z,100488.44
2022-07-25T05:31:57.591Z,100485.22
2022-07-25T05:34:25.523Z,100486.50
2022-07-25T05:36:54.644Z,100481.97
2022-07-25T05:39:22.452Z,100475.19
2022-07-25T05:41:50.245Z,100474.06
2022-07-25T05:44:17.966Z,100468.63
2022-07-25T05:46:45.800Z,100453.44
2022-07-25T05:49:13.926Z,100462.28
2022-07-25T05:51:41.685Z,100458.06
2022-07-25T05:54:10.771Z,100458.06
2022-07-25T05:56:38.517Z,100453.56
2022-07-25T05:59:06.342Z,100446.44
2022-07-25T06:01:34.335Z,100448.69
2022-07-25T06:04:03.375Z,100444.66
2022-07-25T06:06:32.613Z,100440.66
2022-07-25T06:09:00.420Z,100441.00
2022-07-25T06:11:31.401Z,100437.41
2022-07-25T06:13:59.307Z,100437.28
2022-07-25T06:16:27.561Z,100433.59
2022-07-25T06:18:55.292Z,100428.84
2022-07-25T06:21:23.037Z,100424.72
2022-07-25T06:23:50.782Z,100418.34
2022-07-25T06:26:18.548Z,100423.50
2022-07-25T06:28:48.990Z,100414.34
2022-07-25T06:31:18.039Z,100416.59
2022-07-25T06:33:45.830Z,100406.22
2022-07-25T06:36:13.729Z,100403.38
2022-07-25T06:38:41.447Z,100392.56
2022-07-25T06:41:09.170Z,100397.50
2022-07-25T06:43:36.886Z,100391.16
2022-07-25T06:46:06.089Z,100398.38
2022-07-25T06:48:33.885Z,100385.75
2022-07-25T06:51:02.779Z,100388.06
2022-07-25T06:53:30.543Z,100383.00
2022-07-25T06:55:58.232Z,100378.53
2022-07-25T06:58:26.039Z,100383.25
2022-07-25T07:00:53.893Z,100378.88
2022-07-25T07:03:23.083Z,100381.03
2022-07-25T07:05:50.918Z,100379.31
2022-07-25T07:08:18.617Z,100376.44
2022-07-25T07:10:46.341Z,100364.81
2022-07-25T07:13:22.043Z,100373.56
2022-07-25T07:15:52.491Z,100366.66
2022-07-25T07:18:20.905Z,100364.44
2022-07-25T07:20:50.034Z,100364.56
2022-07-25T07:23:17.956Z,100358.53
2022-07-25T07:25:46.867Z,100351.41
2022-07-25T07:28:15.450Z,100339.41
2022-07-25T07:33:31.133Z,100343.19
2022-07-25T07:36:00.182Z,100332.94
2022-07-25T07:38:28.044Z,100334.31
2022-07-25T07:40:55.807Z,100323.47
2022-07-25T07:43:29.205Z,100320.44
2022-07-25T07:46:00.453Z,100326.81
2022-07-25T07:48:28.355Z,100314.06
2022-07-25T07:50:56.099Z,100318.13
2022-07-25T07:53:45.635Z,100320.97
2022-07-25T07:56:12.485Z,100318.72
2022-07-25T07:58:40.247Z,100315.78
2022-07-25T08:01:08.022Z,100315.81
2022-07-25T08:03:36.014Z,100306.81
2022-07-25T08:06:03.912Z,100300.38
2022-07-25T08:08:33.080Z,100303.22
2022-07-25T08:11:00.876Z,100293.63
2022-07-25T08:13:30.345Z,100300.75
2022-07-25T08:15:59.970Z,100289.22
2022-07-25T08:18:29.685Z,100285.00
2022-07-25T08:20:57.909Z,100284.19
2022-07-25T08:23:27.637Z,100285.06
2022-07-25T08:25:56.652Z,100275.34
2022-07-25T08:28:24.434Z,100270.81
2022-07-25T08:30:52.231Z,100266.97
2022-07-25T08:33:20.185Z,100273.22
2022-07-25T08:35:48.778Z,100263.91
2022-07-25T08:38:18.166Z,100262.50
2022-07-25T08:40:46.057Z,100262.44
2022-07-25T08:43:16.070Z,100260.22
2022-07-25T08:45:45.961Z,100247.75
2022-07-25T08:48:14.220Z,100257.25
2022-07-25T08:50:42.100Z,100257.28
2022-07-25T08:53:32.170Z,100252.28
2022-07-25T08:55:57.783Z,100258.75
2022-07-25T08:58:26.837Z,100253.94
2022-07-25T09:00:54.585Z,100250.53
2022-07-25T09:03:22.364Z,100252.28
2022-07-25T09:05:50.669Z,100235.47
2022-07-25T09:08:19.028Z,100235.16
2022-07-25T09:10:48.333Z,100232.88
2022-07-25T09:13:16.528Z,100227.72
2022-07-25T09:15:49.561Z,100223.72
2022-07-25T09:18:19.579Z,100227.25
2022-07-25T09:20:48.714Z,100224.22
2022-07-25T09:23:28.906Z,100222.00
2022-07-25T09:26:03.230Z,100215.88
2022-07-25T09:28:31.005Z,100215.09
2022-07-25T09:31:02.759Z,100216.09
2022-07-25T09:33:30.655Z,100213.19
2022-07-25T09:35:58.561Z,100210.91
2022-07-25T09:38:26.305Z,100202.41
2022-07-25T09:40:58.532Z,100199.75
2022-07-25T09:43:37.325Z,100203.66
2022-07-25T09:46:06.971Z,100198.41
2022-07-25T09:48:35.597Z,100194.97
2022-07-25T09:51:03.738Z,100195.41
2022-07-25T09:53:31.550Z,100198.97
2022-07-25T09:55:59.687Z,100198.03
2022-07-25T09:58:28.875Z,100202.47
2022-07-25T10:01:06.384Z,100205.47
2022-07-25T10:03:46.770Z,100201.16
2022-07-25T10:06:21.181Z,100193.53
2022-07-25T10:08:49.796Z,100193.97
2022-07-25T10:11:22.111Z,100188.91
2022-07-25T10:13:50.155Z,100187.44
2022-07-25T10:16:19.530Z,100200.94
2022-07-25T10:18:52.961Z,100186.47
2022-07-25T10:21:27.252Z,100180.63
2022-07-25T10:24:00.543Z,100175.81
2022-07-25T10:26:28.327Z,100176.63
2022-07-25T10:28:56.957Z,100173.13
2022-07-25T10:31:27.731Z,100172.19
2022-07-25T10:33:58.638Z,100171.00
2022-07-25T10:36:30.080Z,100169.47
2022-07-25T10:38:59.266Z,100162.38
2022-07-25T10:41:27.378Z,100163.25
2022-07-25T10:43:58.207Z,100159.22
2022-07-25T10:46:30.390Z,100156.88
2022-07-25T10:49:04.302Z,100154.19
2022-07-25T10:51:38.330Z,100156.22
2022-07-25T10:54:16.206Z,100147.47
2022-07-25T10:56:53.759Z,100141.50
2022-07-25T10:59:29.135Z,100138.72
2022-07-25T11:01:56.858Z,100130.00
2022-07-25T11:04:26.078Z,100133.16
2022-07-25T11:06:53.847Z,100135.97
2022-07-25T11:09:27.231Z,100138.31
2022-07-25T11:11:57.132Z,100145.09
2022-07-25T11:14:26.895Z,100131.56
2022-07-25T11:16:55.893Z,100128.78
2022-07-25T11:19:26.251Z,100126.00
2022-07-25T11:21:55.631Z,100126.44
2022-07-25T11:24:23.640Z,100127.63
2022-07-25T11:26:52.676Z,100123.63
2022-07-25T11:29:22.220Z,100133.16
2022-07-25T11:31:54.789Z,100137.16
2022-07-25T11:34:25.162Z,100129.59
2022-07-25T11:36:57.092Z,100122.47
2022-07-25T11:39:26.959Z,100130.00
2022-07-25T11:42:02.700Z,100125.25
2022-07-25T11:44:38.574Z,100122.00
2022-07-25T11:47:07.692Z,100109.72
2022-07-25T11:49:45.344Z,100110.91
2022-07-25T11:52:22.377Z,100116.03
2022-07-25T11:54:57.152Z,100103.75
2022-07-25T11:57:25.967Z,100098.56
2022-07-25T11:59:54.451Z,100109.28
2022-07-25T12:02:24.261Z,100106.50
2022-07-25T12:04:57.702Z,100105.72
2022-07-25T12:07:37.949Z,100102.16
2022-07-25T12:10:06.852Z,100094.59
2022-07-25T12:12:43.453Z,100083.91
2022-07-25T12:15:11.631Z,100072.00
2022-07-25T12:17:39.567Z,100066.44
2022-07-25T12:20:14.395Z,100074.38
2022-07-25T12:22:43.809Z,100068.84
2022-07-25T12:25:12.862Z,100067.25
2022-07-25T12:27:40.978Z,100069.59
2022-07-25T12:30:09.973Z,100072.78
2022-07-25T12:32:38.184Z,100065.66
2022-07-25T12:35:07.361Z,100060.50
2022-07-25T12:37:35.299Z,100062.84
2022-07-25T12:40:05.090Z,100062.47
2022-07-25T12:42:32.836Z,100065.56
2022-07-25T12:45:00.561Z,100060.28
2022-07-25T12:47:29.747Z,100047.19
2022-07-25T12:49:57.555Z,100058.78
2022-07-25T12:52:25.300Z,100052.00
2022-07-25T12:54:53.098Z,100061.22
2022-07-25T12:57:23.282Z,100054.50
2022-07-25T12:59:51.228Z,100060.84
2022-07-25T13:02:19.112Z,100055.66
2022-07-25T13:04:48.956Z,100052.88
2022-07-25T13:07:17.309Z,100057.25
2022-07-25T13:09:45.005Z,100070.00
2022-07-25T13:12:16.432Z,100046.97
2022-07-25T13:14:45.796Z,100051.69
2022-07-25T13:17:13.544Z,100061.66
2022-07-25T13:19:41.265Z,100058.50
2022-07-25T13:22:09.092Z,100061.66
2022-07-25T13:24:36.849Z,100064.47
2022-07-25T13:27:04.659Z,100059.72
2022-07-25T13:29:32.427Z,100053.75
2022-07-25T13:32:03.866Z,100058.09
2022-07-25T13:34:31.793Z,100054.13
2022-07-25T13:36:59.533Z,100060.47
2022-07-25T13:39:27.291Z,100062.84
2022-07-25T13:41:55.077Z,100068.03
2022-07-25T13:44:22.828Z,100054.91
2022-07-25T13:46:50.716Z,100060.47
2022-07-25T13:49:19.876Z,100054.91
2022-07-25T13:51:47.713Z,100052.13
2022-07-25T13:54:15.425Z,100051.31
2022-07-25T13:56:43.368Z,100052.53
2022-07-25T13:59:14.518Z,100043.78
2022-07-25T14:01:46.063Z,100056.91
2022-07-25T14:04:13.909Z,100048.16
2022-07-25T14:06:43.406Z,100046.97
2022-07-25T14:09:11.459Z,100052.50
2022-07-25T14:11:39.351Z,100056.88
2022-07-25T14:14:07.272Z,100044.97
2022-07-25T14:16:35.145Z,100043.78
2022-07-25T14:19:03.247Z,100038.63
2022-07-25T14:21:31.305Z,100041.06
2022-07-25T14:24:00.389Z,100032.31
2022-07-25T14:26:28.313Z,100033.06
2022-07-25T14:28:56.413Z,100029.88
2022-07-25T14:31:24.354Z,100031.50
2022-07-25T14:33:52.367Z,100023.50
2022-07-25T14:36:20.185Z,100023.09
2022-07-25T14:38:48.282Z,100011.53
2022-07-25T14:41:17.559Z,100001.59
2022-07-25T14:43:45.663Z,99999.66
2022-07-25T14:46:13.389Z,99997.28
2022-07-25T14:48:41.365Z,100003.22
2022-07-25T14:51:09.153Z,100000.44
2022-07-25T14:53:37.270Z,100008.41
2022-07-25T14:56:06.540Z,99996.88
2022-07-25T14:58:36.089Z,100002.03
2022-07-25T15:01:04.086Z,99985.34
2022-07-25T15:03:31.873Z,99984.97
2022-07-25T15:05:59.599Z,99993.28
2022-07-25T15:08:27.346Z,99987.78
2022-07-25T15:10:55.087Z,99991.00
2022-07-25T15:13:31.811Z,99994.56
2022-07-25T15:16:03.127Z,99985.47
2022-07-25T15:18:30.905Z,99993.75
2022-07-25T15:20:58.689Z,100002.53
2022-07-25T15:23:30.196Z,99990.19
2022-07-25T15:26:02.333Z,99993.41
2022-07-25T15:28:31.078Z,99998.56
2022-07-25T15:30:58.893Z,99985.06
2022-07-25T15:33:28.002Z,100002.53
2022-07-25T15:35:55.825Z,100052.94
2022-07-25T15:38:23.672Z,100076.06
2022-07-25T15:40:51.422Z,100098.03
2022-07-25T15:43:19.254Z,100109.72
2022-07-25T15:45:47.292Z,100139.19
2022-07-25T15:48:17.056Z,100168.66
2022-07-25T15:50:47.897Z,100166.88
2022-07-25T15:53:16.140Z,100165.94
2022-07-25T15:55:44.395Z,100165.50
2022-07-25T15:58:12.567Z,100155.63
2022-07-25T16:00:40.715Z,100159.59
2022-07-25T16:03:08.957Z,100163.78
2022-07-25T16:05:39.340Z,100168.66
2022-07-25T16:08:09.803Z,100176.25
2022-07-25T16:10:38.142Z,100192.31
2022-07-25T16:13:06.195Z,100214.34
2022-07-25T16:15:34.025Z,100219.16
2022-07-25T16:18:03.342Z,100241.47
2022-07-25T16:20:32.128Z,100236.56
2022-07-25T16:23:00.398Z,100232.16
2022-07-25T16:25:30.258Z,100234.69
2022-07-25T16:27:58.511Z,100264.84
2022-07-25T16:30:26.469Z,100264.91
2022-07-25T16:32:54.169Z,100242.59
2022-07-25T16:35:22.519Z,100247.22
2022-07-25T16:37:50.289Z,100279.03
2022-07-25T16:40:18.021Z,100279.41
2022-07-25T16:42:49.248Z,100248.06
2022-07-25T16:45:16.964Z,100276.25
2022-07-25T16:47:44.947Z,100273.19
2022-07-25T16:50:12.657Z,100254.81
2022-07-25T16:52:40.470Z,100246.97
2022-07-25T16:55:08.738Z,100252.22
2022-07-25T16:57:38.346Z,100257.53
2022-07-25T17:00:10.354Z,100243.66
2022-07-25T17:02:38.307Z,100231.91
2022-07-25T17:05:09.585Z,100228.25
2022-07-25T17:07:38.702Z,100228.38
2022-07-25T17:10:08.384Z,100228.97
2022-07-25T17:12:36.464Z,100233.41
2022-07-25T17:15:04.634Z,100240.66
2022-07-25T17:17:34.844Z,100253.09
2022-07-25T17:20:04.197Z,100255.09
2022-07-25T17:22:31.980Z,100269.41
2022-07-25T17:24:59.706Z,100273.72
2022-07-25T17:27:27.456Z,100279.69
2022-07-25T17:29:55.165Z,100278.25
2022-07-25T17:32:26.435Z,100291.03
2022-07-25T17:34:58.717Z,100287.94
2022-07-25T17:37:27.661Z,100289.00
2022-07-25T17:39:55.609Z,100293.22
2022-07-25T17:42:23.883Z,100295.22
2022-07-25T17:44:52.331Z,100292.63
2022-07-25T17:47:20.456Z,100285.88
2022-07-25T17:49:48.194Z,100284.13
2022-07-25T17:52:17.755Z,100284.66
2022-07-25T17:54:45.526Z,100284.13
2022-07-25T17:57:13.274Z,100283.31
2022-07-25T17:59:41.209Z,100289.25
2022-07-25T18:02:09.028Z,100297.97
2022-07-25T18:04:36.845Z,100288.38
2022-07-25T18:07:05.674Z,100286.34
2022-07-25T18:09:34.718Z,100286.31
2022-07-25T18:12:03.469Z,100287.59
2022-07-25T18:14:31.793Z,100291.41
2022-07-25T18:16:59.504Z,100295.38
2022-07-25T18:19:27.298Z,100300.31
2022-07-25T18:21:55.078Z,100294.84
2022-07-25T18:24:26.076Z,100308.84
2022-07-25T18:26:58.329Z,100304.13
2022-07-25T18:29:26.167Z,100309.38
2022-07-25T18:31:54.327Z,100315.16
2022-07-25T18:34:22.065Z,100309.72
2022-07-25T18:36:49.842Z,100311.88
2022-07-25T18:39:17.667Z,100313.84
2022-07-25T18:41:45.393Z,100312.88
2022-07-25T18:44:14.437Z,100319.69
2022-07-25T18:46:45.439Z,100324.41
2022-07-25T18:49:13.371Z,100333.63
2022-07-25T18:51:41.226Z,100344.03
2022-07-25T18:54:09.312Z,100338.72
2022-07-25T18:56:37.712Z,100333.28
2022-07-25T18:59:06.085Z,100328.13
2022-07-25T19:01:37.205Z,100332.19
2022-07-25T19:04:06.513Z,100323.06
2022-07-25T19:06:34.666Z,100324.59
2022-07-25T19:09:02.433Z,100331.28
2022-07-25T19:11:30.204Z,100336.03
2022-07-25T19:13:58.007Z,100343.53
2022-07-25T19:16:25.853Z,100346.38
2022-07-25T19:18:54.983Z,100338.38
2022-07-25T19:21:22.817Z,100348.22
2022-07-25T19:23:51.488Z,100345.28
2022-07-25T19:26:19.588Z,100339.13
2022-07-25T19:28:47.442Z,100351.34
2022-07-25T19:31:15.464Z,100350.88
2022-07-25T19:33:45.436Z,100350.59
2022-07-25T19:36:14.696Z,100368.91
2022-07-25T19:38:42.507Z,100381.72
2022-07-25T19:41:10.651Z,100374.16
2022-07-25T19:43:38.383Z,100385.72
2022-07-25T19:46:06.313Z,100389.59
2022-07-25T19:48:34.227Z,100396.19
2022-07-25T19:51:02.457Z,100389.34
2022-07-25T19:53:32.167Z,100397.09
2022-07-25T19:55:59.954Z,100391.47
2022-07-25T19:58:27.687Z,100397.78
2022-07-25T20:00:55.390Z,100395.72
2022-07-25T20:03:23.781Z,100396.22
2022-07-25T20:05:51.953Z,100407.16
2022-07-25T20:08:19.681Z,100415.59
2022-07-25T20:10:49.181Z,100396.16
2022-07-25T20:13:17.001Z,100406.53
2022-07-25T20:15:44.850Z,100405.88
2022-07-25T20:18:18.806Z,100414.53
2022-07-25T20:20:47.410Z,100422.47
2022-07-25T20:23:15.162Z,100412.19
2022-07-25T20:25:42.904Z,100412.66
2022-07-25T20:28:12.196Z,100413.16
2022-07-25T20:30:40.550Z,100419.44
2022-07-25T20:33:09.909Z,100414.19
2022-07-25T20:35:38.116Z,100416.78
2022-07-25T20:38:09.980Z,100423.84
2022-07-25T20:40:38.759Z,100421.09
2022-07-25T20:43:09.070Z,100415.41
2022-07-25T20:45:38.243Z,100414.16
2022-07-25T20:48:06.583Z,100420.19
2022-07-25T20:50:34.289Z,100415.91
2022-07-25T20:53:03.940Z,100416.94
2022-07-25T20:55:31.687Z,100425.28
2022-07-25T20:58:00.068Z,100423.13
2022-07-25T21:00:30.532Z,100427.50
2022-07-25T21:02:59.999Z,100420.78
2022-07-25T21:05:28.183Z,100416.63
2022-07-25T21:07:56.092Z,100421.84
2022-07-25T21:10:24.449Z,100429.38
2022-07-25T21:12:54.849Z,100436.63
2022-07-25T21:15:23.305Z,100429.75
2022-07-25T21:17:51.175Z,100440.78
2022-07-25T21:20:20.242Z,100441.72
2022-07-25T21:22:47.943Z,100449.22
2022-07-25T21:25:15.981Z,100458.44
2022-07-25T21:27:44.549Z,100447.31
2022-07-25T21:30:13.185Z,100451.00
2022-07-25T21:32:41.390Z,100456.59
2022-07-25T21:35:10.051Z,100461.06
2022-07-25T21:37:39.859Z,100462.22
2022-07-25T21:40:09.093Z,100457.25
2022-07-25T21:42:37.249Z,100465.53
2022-07-25T21:45:05.865Z,100461.59
2022-07-25T21:47:33.633Z,100455.66
2022-07-25T21:50:19.229Z,100462.19
2022-07-25T21:52:54.484Z,100463.00
2022-07-25T21:55:22.562Z,100459.78
2022-07-25T21:57:51.178Z,100464.88
2022-07-25T22:00:19.900Z,100463.09
2022-07-25T22:02:47.770Z,100459.88
2022-07-25T22:05:16.773Z,100465.38
2022-07-25T22:07:47.138Z,100460.78
2022-07-25T22:10:18.010Z,100460.00
2022-07-25T22:12:45.933Z,100461.25
2022-07-25T22:15:14.320Z,100463.91
2022-07-25T22:17:48.407Z,100462.06
2022-07-25T22:20:17.723Z,100467.34
2022-07-25T22:22:46.257Z,100482.00
2022-07-25T22:25:14.172Z,100474.41
2022-07-25T22:27:43.793Z,100479.34
2022-07-25T22:30:18.233Z,100487.94
2022-07-25T22:32:47.043Z,100478.81
2022-07-25T22:35:15.008Z,100481.31
2022-07-25T22:37:42.979Z,100486.25
2022-07-25T22:40:11.806Z,100484.41
2022-07-25T22:42:39.633Z,100486.66
2022-07-25T22:45:09.921Z,100484.66
2022-07-25T22:47:37.712Z,100487.47
2022-07-25T22:50:06.701Z,100489.28
2022-07-25T22:52:35.272Z,100480.50
2022-07-25T22:55:03.076Z,100489.56
2022-07-25T22:57:36.817Z,100482.13
2022-07-25T23:00:07.156Z,100483.53
2022-07-25T23:02:36.384Z,100478.72
2022-07-25T23:05:04.889Z,100486.19
2022-07-25T23:07:32.978Z,100481.66
2022-07-25T23:10:01.021Z,100479.78
2022-07-25T23:12:30.161Z,100472.44
2022-07-25T23:14:57.897Z,100481.97
2022-07-25T23:17:25.598Z,100479.88
2022-07-25T23:19:55.953Z,100476.22
2022-07-25T23:22:25.507Z,100472.38
2022-07-25T23:24:53.222Z,100469.75
2022-07-25T23:27:21.089Z,100471.63
2022-07-25T23:29:48.821Z,100478.25
2022-07-25T23:32:16.608Z,100476.28
2022-07-25T23:34:44.882Z,100484.81
2022-07-25T23:37:14.022Z,100477.97
2022-07-25T23:39:41.712Z,100479.66
2022-07-25T23:42:09.452Z,100476.81
2022-07-25T23:44:38.010Z,100480.00
2022-07-25T23:47:10.227Z,100475.66
2022-07-25T23:49:38.645Z,100482.78
2022-07-25T23:52:06.589Z,100484.41
2022-07-25T23:54:35.797Z,100484.75
2022-07-25T23:57:03.790Z,100489.72
2022-07-25T23:59:31.550Z,100478.66
